Spofford, Texas
Current Conditions -  °F | °C
As of 6:58 PM on Tuesday 27 Jan 2015 (Local Time) from KDLF Reporting Station
Clear Clear  
Wind Chill: 71°   Ceiling: Unl
Heat Index: 71°   Visibility: 10mi
Dew Point: 38°   Wind: 6mph
Humidity: 30%   Direction: 200°SSW
Pressure: 30.12"   Gusts: NA
Location:  28.9584°N, 100.392°W
Report Text: KDLF 280058Z AUTO 20005KT 10SM CLR 22/03 A3012 RMK AO2 SLP196 T02160034 $
Loading
Personal Weather Stations






























Interactive Weather Map New forecast layout! Learn more

10-Day Weather Forecast

Advertisements
Track Severe Weather on mobile